Time;durP1;ratioP1;P1;durP2;ratioP2;P2;SDS_P1;SDS_P2;PMS_P1;PMS_P2;Temp;Humidity;BMP_temperature;BMP_pressure;BME280_temperature;BME280_humidity;BME280_pressure;Samples;Min_cycle;Max_cycle;Signal;HPM_P1;HPM_P2
2022/03/01 00:00:42;;;;;;;13.80;8.45;;;;;;;7.82;51.78;102782.75;5101794;28;20044;-67
2022/03/01 00:03:09;;;;;;;12.98;8.77;;;;;;;7.79;51.35;102775.88;5097057;28;20044;-65
2022/03/01 00:05:37;;;;;;;13.63;9.18;;;;;;;7.79;51.38;102775.03;5102224;28;20075;-67
2022/03/01 00:08:06;;;;;;;16.40;9.30;;;;;;;7.77;51.73;102777.03;5102561;28;20036;-64
2022/03/01 00:10:35;;;;;;;14.02;9.07;;;;;;;7.75;51.23;102768.31;5096047;28;20275;-67
2022/03/01 00:13:02;;;;;;;15.23;9.90;;;;;;;7.75;51.20;102776.34;5103216;28;20075;-67
2022/03/01 00:15:31;;;;;;;16.15;8.98;;;;;;;7.71;51.44;102772.31;5102044;28;20048;-67
2022/03/01 00:17:59;;;;;;;16.00;8.90;;;;;;;7.70;50.98;102775.97;5091888;28;20096;-67
2022/03/01 00:20:26;;;;;;;16.52;9.32;;;;;;;7.69;51.47;102769.78;5102970;28;20139;-67
2022/03/01 00:22:54;;;;;;;18.85;8.93;;;;;;;7.66;51.27;102770.09;5098412;28;20084;-67
2022/03/01 00:25:22;;;;;;;12.65;8.43;;;;;;;7.66;50.99;102771.94;5102359;28;20175;-67
2022/03/01 00:27:51;;;;;;;14.57;9.20;;;;;;;7.63;50.84;102773.09;5092869;28;20487;-67
2022/03/01 00:30:19;;;;;;;15.13;8.93;;;;;;;7.63;50.90;102770.41;5097650;28;20082;-67
2022/03/01 00:32:47;;;;;;;14.40;8.95;;;;;;;7.62;51.25;102771.41;5101875;28;20044;-67
2022/03/01 00:35:15;;;;;;;14.52;9.00;;;;;;;7.62;50.89;102770.56;5101044;28;20214;-67
2022/03/01 00:37:42;;;;;;;12.48;8.45;;;;;;;7.61;51.15;102772.41;5103249;28;20048;-68
2022/03/01 00:40:11;;;;;;;13.98;7.85;;;;;;;7.62;50.98;102773.25;5095995;28;20063;-67
2022/03/01 00:42:40;;;;;;;14.73;8.10;;;;;;;7.60;51.16;102781.41;5102244;28;20047;-67
2022/03/01 00:45:10;;;;;;;14.35;8.80;;;;;;;7.59;50.99;102774.38;5098528;28;20111;-67
2022/03/01 00:47:38;;;;;;;13.38;8.23;;;;;;;7.58;51.21;102785.25;5099263;28;20281;-66
2022/03/01 00:50:06;;;;;;;12.65;7.97;;;;;;;7.59;51.43;102784.25;5100801;28;20148;-67
2022/03/01 00:52:34;;;;;;;14.77;8.45;;;;;;;7.56;51.19;102782.72;5096555;28;20048;-66
2022/03/01 00:55:02;;;;;;;13.30;8.77;;;;;;;7.55;51.38;102781.03;5100877;28;20083;-67
2022/03/01 00:57:30;;;;;;;12.57;8.63;;;;;;;7.53;51.16;102780.34;5102208;28;20610;-66
2022/03/01 00:59:57;;;;;;;12.43;7.88;;;;;;;7.53;51.18;102782.19;5096566;28;20079;-67
2022/03/01 01:02:27;;;;;;;10.77;7.57;;;;;;;7.50;51.20;102780.66;5099863;28;20079;-67
2022/03/01 01:04:55;;;;;;;15.13;8.20;;;;;;;7.49;51.25;102776.31;5101154;28;20113;-66
2022/03/01 01:07:25;;;;;;;12.68;7.75;;;;;;;7.46;50.93;102777.44;5099316;28;20093;-66
2022/03/01 01:09:52;;;;;;;13.48;8.57;;;;;;;7.49;50.88;102777.16;5099692;28;20044;-66
2022/03/01 01:12:20;;;;;;;11.65;7.70;;;;;;;7.47;51.02;102775.63;5101386;28;20052;-67
2022/03/01 01:14:48;;;;;;;17.08;8.68;;;;;;;7.44;50.60;102776.78;5096369;28;20063;-66
2022/03/01 01:17:16;;;;;;;12.88;8.75;;;;;;;7.43;50.89;102769.75;5101379;28;20055;-66
2022/03/01 01:19:45;;;;;;;13.55;7.97;;;;;;;7.42;50.96;102775.25;5101143;28;20048;-66
2022/03/01 01:24:59;;;;;;;11.50;7.68;;;;;;;7.38;50.88;102773.88;5096971;28;20500;-67
2022/03/01 01:27:27;;;;;;;15.38;8.25;;;;;;;7.38;50.92;102779.22;5102422;28;20040;-67
2022/03/01 01:29:55;;;;;;;11.98;7.50;;;;;;;7.36;50.70;102774.03;5097246;28;20044;-66
2022/03/01 01:32:22;;;;;;;16.52;8.80;;;;;;;7.36;51.13;102774.03;5101426;28;20071;-67
2022/03/01 01:34:52;;;;;;;12.75;8.45;;;;;;;7.33;51.03;102766.31;5101712;28;20082;-67
2022/03/01 01:37:20;;;;;;;13.45;8.75;;;;;;;7.33;50.67;102768.13;5095784;28;20103;-67
2022/03/01 01:39:48;;;;;;;11.50;7.53;;;;;;;7.32;50.85;102774.47;5096003;28;20047;-66
2022/03/01 01:42:18;;;;;;;12.60;8.15;;;;;;;7.30;50.83;102769.28;5093985;28;20047;-66
2022/03/01 01:44:45;;;;;;;16.33;8.55;;;;;;;7.29;50.62;102766.75;5100413;28;20056;-65
2022/03/01 01:47:34;;;;;;;14.73;8.35;;;;;;;7.28;50.69;102770.44;5097018;28;20048;-67
2022/03/01 01:50:04;;;;;;;13.93;8.82;;;;;;;7.27;50.89;102768.75;5101629;28;20476;-66
2022/03/01 01:52:32;;;;;;;13.77;8.32;;;;;;;7.27;51.00;102768.75;5088648;28;20072;-67
2022/03/01 01:54:59;;;;;;;14.00;8.40;;;;;;;7.22;51.12;102766.53;5101245;28;20082;-67
2022/03/01 01:57:27;;;;;;;13.90;8.77;;;;;;;7.21;50.95;102762.19;5100279;28;20048;-66
2022/03/01 01:59:57;;;;;;;15.23;9.13;;;;;;;7.23;50.95;102760.19;5101937;28;20059;-67
2022/03/01 02:02:25;;;;;;;14.50;8.13;;;;;;;7.21;51.02;102764.00;5100003;28;20520;-67
2022/03/01 02:04:54;;;;;;;13.88;8.88;;;;;;;7.19;50.95;102756.97;5103207;28;20048;-67
2022/03/01 02:07:23;;;;;;;14.23;9.13;;;;;;;7.18;50.91;102760.66;5100310;28;20040;-67
2022/03/01 02:09:50;;;;;;;13.48;7.97;;;;;;;7.19;50.96;102758.81;5098462;28;20136;-66
2022/03/01 02:12:18;;;;;;;13.13;8.25;;;;;;;7.17;51.34;102760.81;5105542;28;20048;-67
2022/03/01 02:14:46;;;;;;;16.67;9.10;;;;;;;7.16;50.93;102759.13;5105089;28;20434;-67
2022/03/01 02:17:15;;;;;;;13.82;8.95;;;;;;;7.16;51.20;102764.47;5104761;28;20166;-66
2022/03/01 02:19:47;;;;;;;13.05;7.97;;;;;;;7.14;50.78;102753.09;5098828;28;20055;-66
2022/03/01 02:22:17;;;;;;;12.07;7.60;;;;;;;7.13;50.94;102754.91;5097442;28;20060;-67
2022/03/01 02:24:46;;;;;;;13.15;8.27;;;;;;;7.14;51.09;102761.94;5104279;28;20075;-67
2022/03/01 02:27:14;;;;;;;15.65;8.20;;;;;;;7.10;50.98;102757.91;5098496;28;20080;-68
2022/03/01 02:29:41;;;;;;;14.80;7.60;;;;;;;7.10;51.06;102760.56;5098866;28;20075;-68
2022/03/01 02:32:10;;;;;;;13.05;8.10;;;;;;;7.11;51.16;102750.72;5098709;28;20089;-68
2022/03/01 02:34:38;;;;;;;12.75;7.78;;;;;;;7.09;51.04;102744.69;5094368;28;20051;-68
2022/03/01 02:37:06;;;;;;;12.57;7.85;;;;;;;7.05;50.95;102740.63;5102040;28;20090;-66
2022/03/01 02:39:35;;;;;;;13.77;8.02;;;;;;;7.04;50.66;102742.47;5104069;28;20040;-66
2022/03/01 02:42:03;;;;;;;13.57;8.63;;;;;;;7.07;51.17;102755.53;5101226;28;20050;-68
2022/03/01 02:44:31;;;;;;;12.38;8.05;;;;;;;7.05;51.08;102754.00;5111472;28;20059;-66
2022/03/01 02:46:59;;;;;;;12.38;7.97;;;;;;;7.05;50.61;102754.84;5103512;28;20055;-67
2022/03/01 02:49:27;;;;;;;16.83;9.05;;;;;;;7.03;50.65;102751.47;5103367;28;20051;-67
2022/03/01 02:51:54;;;;;;;19.48;8.80;;;;;;;7.03;51.11;102747.97;5104862;28;20094;-67
2022/03/01 02:54:22;;;;;;;13.15;8.35;;;;;;;7.02;50.83;102747.13;5102463;28;20055;-67
2022/03/01 02:56:51;;;;;;;13.73;8.35;;;;;;;7.02;51.09;102744.44;5104448;28;20086;-65
2022/03/01 02:59:19;;;;;;;15.18;8.23;;;;;;;7.02;50.71;102743.59;5099323;28;20085;-66
2022/03/01 03:01:47;;;;;;;17.65;8.93;;;;;;;6.89;51.00;102719.13;5100701;28;20056;-68
2022/03/01 03:04:15;;;;;;;12.43;8.32;;;;;;;6.97;50.92;102733.38;5103016;28;20040;-67
2022/03/01 03:06:43;;;;;;;14.18;8.75;;;;;;;6.96;51.33;102723.66;5098105;28;20052;-66
2022/03/01 03:09:11;;;;;;;12.82;8.63;;;;;;;6.90;51.24;102723.47;5103258;28;20083;-66
2022/03/01 03:11:39;;;;;;;12.30;8.40;;;;;;;6.95;51.02;102731.84;5103324;28;20048;-66
2022/03/01 03:14:08;;;;;;;16.00;9.50;;;;;;;6.80;50.92;102703.00;5095476;28;20262;-67
2022/03/01 03:16:36;;;;;;;12.32;8.07;;;;;;;6.94;50.97;102727.50;5104224;28;20082;-67
2022/03/01 03:19:03;;;;;;;16.77;8.32;;;;;;;6.94;50.74;102732.84;5099152;28;20333;-66
2022/03/01 03:21:31;;;;;;;12.20;8.00;;;;;;;6.92;50.87;102730.34;5104409;28;20078;-66
2022/03/01 03:23:59;;;;;;;13.77;8.57;;;;;;;6.92;51.17;102729.50;5103673;28;20047;-66
2022/03/01 03:26:27;;;;;;;12.38;8.15;;;;;;;6.92;51.17;102734.84;5104603;28;20048;-67
2022/03/01 03:28:54;;;;;;;15.10;8.63;;;;;;;6.91;51.00;102730.50;5096864;28;20076;-66
2022/03/01 03:31:23;;;;;;;12.70;8.05;;;;;;;6.88;51.08;102734.31;5097490;28;20029;-67
2022/03/01 03:33:51;;;;;;;16.85;9.30;;;;;;;6.90;50.96;102740.34;5102539;28;20040;-67
2022/03/01 03:36:19;;;;;;;13.82;8.07;;;;;;;6.90;50.81;102729.66;5104097;28;20079;-67
2022/03/01 03:38:50;;;;;;;15.43;9.23;;;;;;;6.89;50.89;102736.00;5102742;28;20489;-67
2022/03/01 03:41:17;;;;;;;12.80;8.48;;;;;;;6.86;51.00;102728.28;5099787;28;20560;-68
2022/03/01 03:43:45;;;;;;;16.10;8.88;;;;;;;6.86;50.79;102730.94;5102660;28;20048;-68
2022/03/01 03:46:13;;;;;;;11.57;8.43;;;;;;;6.86;50.96;102728.28;5097427;28;20104;-68
2022/03/01 03:48:42;;;;;;;14.77;8.70;;;;;;;6.84;51.21;102728.44;5103210;28;20155;-67
2022/03/01 03:51:10;;;;;;;12.95;8.45;;;;;;;6.85;51.14;102729.28;5103004;28;20095;-67
2022/03/01 03:53:38;;;;;;;15.55;8.98;;;;;;;6.83;50.98;102732.09;5095304;28;20071;-67
2022/03/01 03:56:05;;;;;;;13.07;8.60;;;;;;;6.83;51.11;102731.25;5103520;28;20047;-67
2022/03/01 03:58:33;;;;;;;15.07;9.10;;;;;;;6.82;51.19;102724.22;5098085;28;20063;-66
2022/03/01 04:01:01;;;;;;;13.43;8.18;;;;;;;6.81;51.17;102730.56;5101417;28;20067;-67
2022/03/01 04:03:29;;;;;;;13.80;8.52;;;;;;;6.77;51.26;102721.16;5100622;28;20364;-67
2022/03/01 04:05:59;;;;;;;14.40;8.88;;;;;;;6.80;51.12;102731.56;5102427;28;20058;-65
2022/03/01 04:08:27;;;;;;;17.02;8.75;;;;;;;6.78;51.64;102730.88;5093732;28;20492;-68
2022/03/01 04:10:56;;;;;;;13.50;8.80;;;;;;;6.78;51.28;102722.84;5102657;28;20131;-68
2022/03/01 04:13:24;;;;;;;13.23;8.73;;;;;;;6.77;51.24;102726.50;5094483;28;20079;-68
2022/03/01 04:15:52;;;;;;;15.05;8.10;;;;;;;6.77;51.13;102734.53;5103184;28;20436;-67
2022/03/01 04:18:19;;;;;;;12.30;8.25;;;;;;;6.76;51.13;102730.19;5101138;28;20041;-66
2022/03/01 04:20:47;;;;;;;14.35;8.75;;;;;;;6.76;51.10;102728.34;5102060;28;20068;-64
2022/03/01 04:23:16;;;;;;;13.48;9.07;;;;;;;6.76;51.06;102727.50;5106669;28;20076;-68
2022/03/01 04:25:44;;;;;;;15.40;8.77;;;;;;;6.75;51.36;102726.66;5100427;28;20047;-67
2022/03/01 04:28:12;;;;;;;13.52;8.38;;;;;;;6.75;51.02;102733.84;5098233;28;20082;-66
2022/03/01 04:30:39;;;;;;;15.48;8.77;;;;;;;6.73;51.07;102738.50;5101953;28;20088;-68
2022/03/01 04:33:07;;;;;;;14.43;8.88;;;;;;;6.70;51.36;102730.78;5092301;28;20079;-68
2022/03/01 04:35:35;;;;;;;14.00;8.05;;;;;;;6.73;51.45;102728.63;5097783;28;20075;-67
2022/03/01 04:38:03;;;;;;;12.43;8.27;;;;;;;6.73;51.15;102735.81;5097606;28;20307;-67
2022/03/01 04:40:32;;;;;;;15.13;8.77;;;;;;;6.69;51.18;102727.25;5102156;28;20083;-67
2022/03/01 04:43:00;;;;;;;15.25;8.98;;;;;;;6.73;51.26;102735.81;5101579;28;20072;-67
2022/03/01 04:45:27;;;;;;;13.05;8.82;;;;;;;6.70;51.33;102734.28;5102555;28;20116;-67
2022/03/01 04:47:55;;;;;;;13.50;8.32;;;;;;;6.69;51.36;102742.44;5101972;28;20048;-67
2022/03/01 04:50:23;;;;;;;12.85;8.60;;;;;;;6.69;51.19;102729.94;5101217;28;20067;-67
2022/03/01 04:52:51;;;;;;;13.85;8.50;;;;;;;6.69;51.05;102737.09;5102607;28;20321;-67
2022/03/01 04:55:19;;;;;;;14.65;8.80;;;;;;;6.68;51.12;102733.59;5102439;28;20090;-68
2022/03/01 04:57:48;;;;;;;13.43;8.23;;;;;;;6.62;51.26;102722.66;5101295;28;20048;-68
2022/03/01 05:00:16;;;;;;;12.98;8.25;;;;;;;6.69;50.93;102732.59;5102052;28;20394;-68
2022/03/01 05:02:47;;;;;;;15.10;9.75;;;;;;;6.66;51.27;102730.22;5091441;28;20056;-68
2022/03/01 05:05:16;;;;;;;13.38;7.97;;;;;;;6.66;51.49;102729.41;5101891;28;20043;-67
2022/03/01 05:07:46;;;;;;;12.05;8.02;;;;;;;6.66;51.13;102724.91;5102473;28;20072;-67
2022/03/01 05:10:17;;;;;;;13.70;8.80;;;;;;;6.63;51.34;102717.19;5100430;28;20044;-67
2022/03/01 05:12:48;;;;;;;16.45;9.23;;;;;;;6.63;51.44;102724.34;5102620;28;20048;-67
2022/03/01 05:15:17;;;;;;;14.70;8.98;;;;;;;6.60;51.06;102719.31;5100360;28;20067;-67
2022/03/01 05:17:45;;;;;;;13.85;9.07;;;;;;;6.63;51.95;102724.34;5100479;28;20079;-68
2022/03/01 05:20:14;;;;;;;15.43;8.30;;;;;;;6.62;51.67;102723.50;5101394;28;20052;-66
2022/03/01 05:22:43;;;;;;;13.05;8.70;;;;;;;6.62;51.58;102717.31;5096124;28;20080;-65
2022/03/01 05:25:14;;;;;;;14.38;8.20;;;;;;;6.62;51.24;102714.66;5101508;28;20186;-68
2022/03/01 05:27:43;;;;;;;13.95;8.02;;;;;;;6.61;51.40;102710.31;5096217;28;20125;-67
2022/03/01 05:30:16;;;;;;;14.20;8.77;;;;;;;6.60;51.56;102720.16;5100161;28;20067;-67
2022/03/01 05:32:46;;;;;;;13.40;8.70;;;;;;;6.58;51.44;102713.28;5098323;28;20084;-68
2022/03/01 05:35:15;;;;;;;15.57;9.52;;;;;;;6.59;51.27;102714.97;5101452;28;20079;-67
2022/03/01 05:37:44;;;;;;;14.00;8.52;;;;;;;6.57;51.29;102714.25;5101789;28;20052;-67
2022/03/01 05:40:13;;;;;;;14.98;8.57;;;;;;;6.59;51.46;102718.47;5104334;28;20062;-67
2022/03/01 05:42:42;;;;;;;14.10;8.45;;;;;;;6.70;51.06;102712.06;5099948;28;20077;-67
2022/03/01 05:45:12;;;;;;;12.80;7.82;;;;;;;6.80;51.18;102708.34;5105452;28;20052;-67
2022/03/01 05:47:40;;;;;;;13.75;8.63;;;;;;;6.95;50.39;102710.47;5104468;28;20269;-67
2022/03/01 05:50:09;;;;;;;14.98;8.93;;;;;;;7.09;50.31;102701.91;5097577;28;20048;-66
2022/03/01 05:52:37;;;;;;;14.90;8.90;;;;;;;7.23;49.91;102696.00;5106302;28;20392;-66
2022/03/01 05:55:07;;;;;;;13.98;8.50;;;;;;;7.24;49.95;102696.84;5105608;28;20067;-66
2022/03/01 05:57:34;;;;;;;14.48;8.77;;;;;;;7.22;49.42;102693.50;5105713;28;20099;-67
2022/03/01 06:00:04;;;;;;;13.95;8.50;;;;;;;7.13;50.04;102689.91;5095460;28;20087;-66
2022/03/01 06:02:33;;;;;;;14.07;8.77;;;;;;;7.10;50.15;102691.06;5094995;28;20063;-68
2022/03/01 06:05:05;;;;;;;13.32;8.38;;;;;;;7.04;50.19;102699.69;5105371;28;20059;-67
2022/03/01 06:07:33;;;;;;;12.85;8.43;;;;;;;6.99;50.34;102695.78;5102510;28;20084;-68
2022/03/01 06:10:00;;;;;;;15.63;7.93;;;;;;;6.92;50.56;102698.28;5105098;28;20052;-67
2022/03/01 06:12:28;;;;;;;14.10;8.77;;;;;;;6.82;50.59;102692.16;5102219;28;20063;-67
2022/03/01 06:14:56;;;;;;;15.23;9.23;;;;;;;6.82;50.90;102693.00;5104636;28;20067;-66
2022/03/01 06:17:24;;;;;;;13.43;8.32;;;;;;;6.77;51.01;102691.78;5103894;28;20044;-68
2022/03/01 06:19:53;;;;;;;14.60;9.23;;;;;;;6.74;50.98;102687.56;5093898;28;20067;-67
2022/03/01 06:22:21;;;;;;;15.02;9.55;;;;;;;6.73;51.10;102693.91;5102816;28;20067;-67
2022/03/01 06:24:49;;;;;;;18.08;9.38;;;;;;;6.72;51.16;102691.38;5104204;28;20072;-68
2022/03/01 06:27:17;;;;;;;13.35;9.55;;;;;;;6.68;51.14;102688.19;5103945;28;20047;-64
2022/03/01 06:29:45;;;;;;;13.15;9.15;;;;;;;6.65;51.09;102688.47;5102867;28;20453;-65
2022/03/01 06:32:12;;;;;;;13.43;9.15;;;;;;;6.61;51.27;102688.94;5097232;28;20072;-65
2022/03/01 06:34:40;;;;;;;13.00;8.73;;;;;;;6.62;51.64;102693.28;5105203;28;20074;-65
2022/03/01 06:37:30;;;;;;;17.42;9.73;;;;;;;6.57;51.54;102704.41;5103506;28;20120;-64
2022/03/01 06:39:57;;;;;;;15.35;9.80;;;;;;;6.57;51.45;102703.56;5099134;28;20082;-65
2022/03/01 06:42:26;;;;;;;14.90;9.85;;;;;;;6.55;51.28;102709.06;5105431;28;20047;-65
2022/03/01 06:44:54;;;;;;;14.00;9.45;;;;;;;6.55;51.37;102719.75;5099913;28;20044;-66
2022/03/01 06:47:22;;;;;;;16.27;9.85;;;;;;;6.52;51.21;102725.41;5104443;28;20052;-67
2022/03/01 06:49:51;;;;;;;15.68;9.60;;;;;;;6.52;51.24;102725.41;5101351;28;20468;-64
2022/03/01 06:52:19;;;;;;;15.55;9.80;;;;;;;6.51;51.67;102726.38;5102785;28;20284;-65
2022/03/01 06:54:48;;;;;;;14.80;9.88;;;;;;;6.50;51.42;102727.38;5103859;28;20139;-67
2022/03/01 06:57:16;;;;;;;18.73;9.57;;;;;;;6.49;51.39;102731.03;5104299;28;20052;-67
2022/03/01 06:59:44;;;;;;;18.25;10.35;;;;;;;6.48;51.44;102732.03;5100853;28;20455;-65
2022/03/01 07:02:12;;;;;;;17.90;9.70;;;;;;;6.49;51.43;102736.38;5096465;28;20094;-65
2022/03/01 07:04:41;;;;;;;15.70;9.75;;;;;;;6.46;51.60;102732.16;5096738;28;20516;-64
2022/03/01 07:07:09;;;;;;;14.77;9.20;;;;;;;6.45;51.60;102735.84;5104593;28;20044;-64
2022/03/01 07:09:37;;;;;;;16.02;10.00;;;;;;;6.44;51.51;102744.00;5102731;28;20417;-64
2022/03/01 07:12:07;;;;;;;18.27;10.60;;;;;;;6.44;51.47;102754.69;5096811;28;20055;-65
2022/03/01 07:14:35;;;;;;;17.27;9.98;;;;;;;6.42;51.51;102744.16;5101408;28;20055;-65
2022/03/01 07:17:03;;;;;;;16.85;10.18;;;;;;;6.42;51.66;102745.97;5095779;28;20535;-64
2022/03/01 07:19:31;;;;;;;14.05;9.05;;;;;;;6.40;51.70;102747.94;5099684;28;20051;-66
2022/03/01 07:21:59;;;;;;;14.68;9.63;;;;;;;6.40;51.50;102754.13;5103416;28;20047;-64
2022/03/01 07:24:27;;;;;;;15.77;9.23;;;;;;;6.39;52.00;102738.25;5101569;28;20067;-65
2022/03/01 07:26:55;;;;;;;14.00;9.85;;;;;;;6.41;51.55;102744.28;5096501;28;20090;-65
2022/03/01 07:29:24;;;;;;;17.33;9.88;;;;;;;6.40;51.50;102737.25;5098565;28;20061;-65
2022/03/01 07:31:52;;;;;;;15.63;9.15;;;;;;;6.37;51.76;102746.41;5101813;28;20105;-65
2022/03/01 07:34:23;;;;;;;16.50;10.05;;;;;;;6.39;52.05;102747.09;5101981;28;20149;-65
2022/03/01 07:36:51;;;;;;;14.40;9.48;;;;;;;6.38;51.62;102749.94;5098998;28;20059;-66
2022/03/01 07:39:19;;;;;;;14.77;9.05;;;;;;;6.38;51.99;102755.25;5095347;28;20083;-64
2022/03/01 07:41:49;;;;;;;16.05;9.55;;;;;;;6.39;51.80;102755.13;5096013;28;20155;-66
2022/03/01 07:44:17;;;;;;;14.90;9.90;;;;;;;6.40;51.90;102759.47;5100887;28;20079;-66
2022/03/01 07:46:47;;;;;;;17.10;9.90;;;;;;;6.38;51.88;102764.13;5102534;28;20097;-65
2022/03/01 07:49:15;;;;;;;17.70;9.48;;;;;;;6.43;52.10;102771.69;5099964;28;20120;-65
2022/03/01 07:51:43;;;;;;;15.70;9.73;;;;;;;6.46;52.15;102768.72;5101214;28;20082;-66
2022/03/01 07:54:11;;;;;;;15.90;9.40;;;;;;;6.47;51.95;102763.22;5102880;28;20075;-64
2022/03/01 07:56:40;;;;;;;19.65;10.23;;;;;;;6.43;51.67;102745.81;5102862;28;20052;-63
2022/03/01 07:59:08;;;;;;;16.23;9.70;;;;;;;6.47;52.06;102752.56;5102046;28;20145;-64
2022/03/01 08:01:35;;;;;;;15.55;9.18;;;;;;;6.47;52.11;102760.56;5094410;28;20520;-66
2022/03/01 08:04:05;;;;;;;17.70;9.20;;;;;;;6.49;52.01;102752.41;5096377;28;20044;-65
2022/03/01 08:06:33;;;;;;;16.77;9.02;;;;;;;6.47;51.66;102752.56;5102531;28;20069;-64
2022/03/01 08:09:05;;;;;;;14.75;9.98;;;;;;;6.36;51.92;102734.06;5099618;28;20040;-64
2022/03/01 08:11:32;;;;;;;17.23;9.75;;;;;;;6.49;51.72;102758.59;5101325;28;20067;-66
2022/03/01 08:14:00;;;;;;;17.05;8.85;;;;;;;6.49;52.08;102763.09;5102809;28;20058;-65
2022/03/01 08:16:28;;;;;;;14.55;9.07;;;;;;;6.49;52.33;102766.59;5099905;28;20532;-66
2022/03/01 08:18:56;;;;;;;15.65;8.50;;;;;;;6.50;52.03;102762.09;5101796;28;20052;-64
2022/03/01 08:21:25;;;;;;;14.40;8.95;;;;;;;6.50;52.04;102751.41;5099785;28;20051;-65
2022/03/01 08:23:56;;;;;;;17.38;10.95;;;;;;;6.49;52.13;102755.91;5097587;28;20058;-64
2022/03/01 08:26:24;;;;;;;17.52;9.80;;;;;;;6.50;52.10;102756.75;5100554;28;20517;-64
2022/03/01 08:28:51;;;;;;;14.32;9.23;;;;;;;6.50;52.28;102756.75;5101598;28;20063;-62
2022/03/01 08:31:19;;;;;;;13.57;8.70;;;;;;;6.51;52.33;102759.28;5101203;28;20051;-64
2022/03/01 08:33:47;;;;;;;14.88;9.25;;;;;;;6.52;52.16;102766.31;5101174;28;20108;-65
2022/03/01 08:36:18;;;;;;;17.85;9.82;;;;;;;6.53;52.14;102769.81;5100607;28;20162;-64
2022/03/01 08:38:47;;;;;;;16.38;8.90;;;;;;;6.55;52.28;102767.84;5099464;28;20075;-63
2022/03/01 08:41:14;;;;;;;18.05;9.45;;;;;;;6.55;52.49;102761.66;5096964;28;20086;-65
2022/03/01 08:43:42;;;;;;;15.45;8.65;;;;;;;6.56;52.52;102764.19;5097323;28;20072;-64
2022/03/01 08:46:11;;;;;;;18.30;8.52;;;;;;;6.58;52.42;102766.69;5102317;28;20365;-66
2022/03/01 08:48:39;;;;;;;13.70;8.95;;;;;;;6.66;52.35;102767.63;5101496;28;20043;-65
2022/03/01 08:51:08;;;;;;;14.85;8.82;;;;;;;6.80;52.07;102771.63;5097074;28;20059;-64
2022/03/01 08:53:36;;;;;;;12.73;8.65;;;;;;;6.97;51.75;102769.94;5100686;28;20064;-64
2022/03/01 08:56:08;;;;;;;16.35;8.43;;;;;;;7.10;50.96;102768.59;5101838;28;20099;-64
2022/03/01 08:58:36;;;;;;;14.25;8.95;;;;;;;7.31;50.83;102778.16;5101818;28;20073;-63
2022/03/01 09:01:03;;;;;;;13.98;9.07;;;;;;;7.46;50.00;102781.97;5097195;28;20492;-63
2022/03/01 09:03:33;;;;;;;13.25;9.20;;;;;;;7.59;49.96;102777.06;5100074;28;20048;-63
2022/03/01 09:06:12;;;;;;;15.50;9.35;;;;;;;7.80;49.81;102793.63;5096008;28;20043;-65
2022/03/01 09:08:41;;;;;;;15.55;9.68;;;;;;;7.93;49.15;102792.38;5098632;28;20793;-64
2022/03/01 09:11:11;;;;;;;13.50;8.32;;;;;;;8.06;49.08;102788.28;5090772;28;20044;-64
2022/03/01 09:13:39;;;;;;;17.15;8.95;;;;;;;8.16;48.80;102782.81;5099307;28;20044;-65
2022/03/01 09:16:07;;;;;;;12.38;8.48;;;;;;;8.26;48.92;102786.22;5099681;28;20295;-65
2022/03/01 09:18:36;;;;;;;14.27;7.95;;;;;;;8.35;48.21;102785.31;5096082;28;20044;-63
2022/03/01 09:21:05;;;;;;;14.55;7.82;;;;;;;8.41;48.32;102787.34;5096888;28;20048;-65
2022/03/01 09:23:39;;;;;;;13.77;8.65;;;;;;;8.43;48.58;102793.38;5100072;28;20052;-63
2022/03/01 09:26:06;;;;;;;11.80;7.88;;;;;;;8.52;48.21;102786.22;5099231;28;20561;-64
2022/03/01 09:28:35;;;;;;;12.07;7.88;;;;;;;8.41;48.19;102768.59;5097716;28;20047;-63
2022/03/01 09:31:03;;;;;;;14.77;8.85;;;;;;;8.52;48.39;102788.91;5097232;28;20047;-64
2022/03/01 09:33:32;;;;;;;12.88;8.18;;;;;;;8.53;48.37;102787.06;5100960;28;20048;-65
2022/03/01 09:36:01;;;;;;;15.40;8.65;;;;;;;8.60;48.07;102796.97;5092417;28;20044;-63
2022/03/01 09:38:28;;;;;;;13.90;8.48;;;;;;;8.63;48.19;102780.56;5099663;28;20044;-64
2022/03/01 09:40:56;;;;;;;12.40;7.97;;;;;;;8.67;48.53;102784.56;5098177;28;20065;-64
2022/03/01 09:43:24;;;;;;;11.32;7.68;;;;;;;8.70;48.08;102786.09;5100100;28;20063;-63
2022/03/01 09:45:54;;;;;;;13.77;8.82;;;;;;;8.75;48.69;102781.09;5094098;28;20059;-64
2022/03/01 09:48:22;;;;;;;12.60;7.60;;;;;;;8.77;47.93;102781.75;5100414;28;20048;-65
2022/03/01 09:50:51;;;;;;;16.40;8.50;;;;;;;8.81;47.87;102783.97;5098707;28;20044;-63
2022/03/01 09:53:18;;;;;;;13.15;8.02;;;;;;;8.85;48.40;102789.00;5099270;28;20047;-68
2022/03/01 09:55:46;;;;;;;15.10;8.52;;;;;;;8.90;48.31;102787.50;5097419;28;20044;-65
2022/03/01 09:58:14;;;;;;;16.95;8.15;;;;;;;8.87;48.17;102782.47;5100537;28;20080;-61
2022/03/01 10:00:43;;;;;;;12.32;8.45;;;;;;;8.91;48.36;102782.97;5097837;28;20045;-61
2022/03/01 10:03:16;;;;;;;13.05;8.52;;;;;;;8.82;47.84;102793.69;5097606;28;20116;-61
2022/03/01 10:05:44;;;;;;;10.45;7.65;;;;;;;8.67;49.08;102795.28;5097274;28;20131;-61
2022/03/01 10:08:13;;;;;;;14.13;8.02;;;;;;;8.52;49.04;102794.25;5099940;28;20056;-61
2022/03/01 10:10:43;;;;;;;12.50;7.78;;;;;;;8.37;50.33;102790.50;5099811;28;20532;-61
2022/03/01 10:13:14;;;;;;;10.98;7.22;;;;;;;8.25;49.90;102805.13;5099001;28;20044;-61
2022/03/01 10:15:42;;;;;;;11.90;7.78;;;;;;;8.18;50.42;102812.13;5097991;28;20076;-61
2022/03/01 10:18:14;;;;;;;13.70;7.03;;;;;;;8.10;50.88;102811.06;5098986;28;20097;-62
2022/03/01 10:20:45;;;;;;;11.38;6.97;;;;;;;8.04;50.93;102814.38;5099792;28;20048;-62
2022/03/01 10:23:21;;;;;;;10.82;7.07;;;;;;;7.99;51.67;102805.97;5095282;28;20059;-62
2022/03/01 10:25:48;;;;;;;14.88;7.63;;;;;;;7.95;51.19;102791.22;5101690;28;20039;-63
2022/03/01 10:28:16;;;;;;;13.00;7.22;;;;;;;7.91;51.13;102795.22;5101179;28;20060;-62
2022/03/01 10:30:44;;;;;;;11.75;7.13;;;;;;;7.89;51.27;102799.03;5102523;28;20044;-63
2022/03/01 10:33:14;;;;;;;12.45;7.70;;;;;;;7.83;51.32;102796.00;5101905;28;20101;-61
2022/03/01 10:35:57;;;;;;;11.60;7.15;;;;;;;7.84;51.51;102797.66;5100875;28;20036;-62
2022/03/01 10:38:25;;;;;;;11.27;6.93;;;;;;;7.83;51.90;102787.13;5101872;28;20060;-62
2022/03/01 10:40:58;;;;;;;11.77;7.28;;;;;;;7.80;52.01;102788.25;5102299;28;20129;-62
2022/03/01 10:43:27;;;;;;;16.38;8.45;;;;;;;7.80;52.15;102784.75;5102865;28;20051;-61
2022/03/01 10:45:56;;;;;;;14.73;7.55;;;;;;;7.92;51.57;102780.81;5102122;28;20546;-61
2022/03/01 10:48:28;;;;;;;11.32;7.45;;;;;;;8.09;51.65;102785.28;5103653;28;20052;-63
2022/03/01 10:51:01;;;;;;;11.43;7.43;;;;;;;8.25;50.86;102783.69;5100460;28;20109;-61
2022/03/01 10:53:30;;;;;;;10.13;7.00;;;;;;;8.44;50.68;102786.19;5103950;28;20473;-62
2022/03/01 10:56:01;;;;;;;13.95;6.90;;;;;;;8.65;50.27;102793.81;5103183;28;20051;-62
2022/03/01 10:58:29;;;;;;;11.93;6.60;;;;;;;8.78;50.10;102786.13;5102499;28;20040;-62
2022/03/01 11:00:57;;;;;;;14.80;6.93;;;;;;;8.95;49.28;102795.06;5100764;28;20065;-61
2022/03/01 11:03:26;;;;;;;10.10;6.63;;;;;;;9.12;49.07;102792.25;5100385;28;20495;-62
2022/03/01 11:05:55;;;;;;;10.95;6.88;;;;;;;9.19;48.94;102786.22;5098891;28;20124;-61
2022/03/01 11:08:33;;;;;;;13.73;8.05;;;;;;;9.31;48.81;102796.47;5101238;28;20083;-61
2022/03/01 11:11:02;;;;;;;11.02;6.63;;;;;;;9.28;48.73;102779.88;5099106;28;20048;-62
2022/03/01 11:13:32;;;;;;;14.15;7.65;;;;;;;9.15;49.28;102793.75;5100568;28;20659;-63
2022/03/01 11:16:25;;;;;;;13.70;8.18;;;;;;;8.98;49.44;102798.25;5102272;28;20036;-61
2022/03/01 11:19:04;;;;;;;11.88;7.78;;;;;;;8.68;50.41;102772.84;5098706;28;20051;-63
2022/03/01 11:21:34;;;;;;;11.30;6.53;;;;;;;8.74;50.54;102798.16;5098899;28;20048;-62
2022/03/01 11:24:02;;;;;;;11.38;7.05;;;;;;;8.68;51.44;102796.13;5096051;28;20087;-63
2022/03/01 11:26:37;;;;;;;15.00;8.50;;;;;;;8.61;50.95;102789.78;5100270;28;20051;-63
2022/03/01 11:29:09;;;;;;;11.00;7.25;;;;;;;8.52;50.67;102783.53;5100023;28;20127;-63
2022/03/01 11:31:38;;;;;;;12.88;8.43;;;;;;;8.52;51.43;102796.09;5102689;28;20041;-63
2022/03/01 11:34:14;;;;;;;12.23;7.13;;;;;;;8.48;52.14;102799.09;5099586;28;20067;-63